sensor_id;sensor_type;location;lat;lon;timestamp;temperature;humidity
61000;SHT31;46879;45.658;11.814;2023-04-16T00:04:32;18.34;68.06
61000;SHT31;46879;45.658;11.814;2023-04-16T00:09:33;18.33;68.09
61000;SHT31;46879;45.658;11.814;2023-04-16T00:14:33;18.36;68.07
61000;SHT31;46879;45.658;11.814;2023-04-16T00:19:34;18.37;68.08
61000;SHT31;46879;45.658;11.814;2023-04-16T00:24:35;18.33;68.16
61000;SHT31;46879;45.658;11.814;2023-04-16T00:29:36;18.33;68.14
61000;SHT31;46879;45.658;11.814;2023-04-16T00:34:36;18.34;68.14
61000;SHT31;46879;45.658;11.814;2023-04-16T00:39:37;18.33;68.20
61000;SHT31;46879;45.658;11.814;2023-04-16T00:44:37;18.33;68.20
61000;SHT31;46879;45.658;11.814;2023-04-16T00:49:38;18.32;68.23
61000;SHT31;46879;45.658;11.814;2023-04-16T00:54:39;18.30;68.38
61000;SHT31;46879;45.658;11.814;2023-04-16T00:59:41;18.32;68.31
61000;SHT31;46879;45.658;11.814;2023-04-16T01:04:41;18.29;68.33
61000;SHT31;46879;45.658;11.814;2023-04-16T01:09:42;18.29;68.33
61000;SHT31;46879;45.658;11.814;2023-04-16T01:14:43;18.29;68.38
61000;SHT31;46879;45.658;11.814;2023-04-16T01:19:43;18.32;68.68
61000;SHT31;46879;45.658;11.814;2023-04-16T01:24:44;18.30;68.54
61000;SHT31;46879;45.658;11.814;2023-04-16T01:29:44;18.29;68.54
61000;SHT31;46879;45.658;11.814;2023-04-16T01:34:45;18.30;68.51
61000;SHT31;46879;45.658;11.814;2023-04-16T01:39:46;18.29;68.64
61000;SHT31;46879;45.658;11.814;2023-04-16T01:44:46;18.30;68.62
61000;SHT31;46879;45.658;11.814;2023-04-16T01:49:47;18.28;68.63
61000;SHT31;46879;45.658;11.814;2023-04-16T01:54:48;18.30;68.73
61000;SHT31;46879;45.658;11.814;2023-04-16T01:59:48;18.30;68.70
61000;SHT31;46879;45.658;11.814;2023-04-16T02:04:49;18.28;68.90
61000;SHT31;46879;45.658;11.814;2023-04-16T02:09:50;18.28;68.89
61000;SHT31;46879;45.658;11.814;2023-04-16T02:14:50;18.28;68.88
61000;SHT31;46879;45.658;11.814;2023-04-16T02:19:51;18.30;69.07
61000;SHT31;46879;45.658;11.814;2023-04-16T02:24:52;18.28;69.00
61000;SHT31;46879;45.658;11.814;2023-04-16T02:29:52;18.28;68.96
61000;SHT31;46879;45.658;11.814;2023-04-16T02:34:53;18.28;69.01
61000;SHT31;46879;45.658;11.814;2023-04-16T02:39:54;18.28;68.96
61000;SHT31;46879;45.658;11.814;2023-04-16T02:44:55;18.28;68.94
61000;SHT31;46879;45.658;11.814;2023-04-16T02:49:55;18.28;68.86
61000;SHT31;46879;45.658;11.814;2023-04-16T02:54:56;18.28;68.98
61000;SHT31;46879;45.658;11.814;2023-04-16T02:59:56;18.28;68.96
61000;SHT31;46879;45.658;11.814;2023-04-16T03:04:57;18.26;68.93
61000;SHT31;46879;45.658;11.814;2023-04-16T03:09:59;18.29;68.93
61000;SHT31;46879;45.658;11.814;2023-04-16T03:14:59;18.28;68.96
61000;SHT31;46879;45.658;11.814;2023-04-16T03:20:00;18.28;69.00
61000;SHT31;46879;45.658;11.814;2023-04-16T03:25:01;18.25;69.05
61000;SHT31;46879;45.658;11.814;2023-04-16T03:30:01;18.28;68.97
61000;SHT31;46879;45.658;11.814;2023-04-16T03:35:06;18.26;69.00
61000;SHT31;46879;45.658;11.814;2023-04-16T03:40:07;18.26;69.08
61000;SHT31;46879;45.658;11.814;2023-04-16T03:45:08;18.28;69.05
61000;SHT31;46879;45.658;11.814;2023-04-16T03:50:09;18.28;69.08
61000;SHT31;46879;45.658;11.814;2023-04-16T03:55:11;18.28;68.99
61000;SHT31;46879;45.658;11.814;2023-04-16T04:00:11;18.29;69.14
61000;SHT31;46879;45.658;11.814;2023-04-16T04:05:12;18.29;69.20
61000;SHT31;46879;45.658;11.814;2023-04-16T04:10:13;18.29;69.20
61000;SHT31;46879;45.658;11.814;2023-04-16T04:15:13;18.25;69.23
61000;SHT31;46879;45.658;11.814;2023-04-16T04:20:14;18.28;69.21
61000;SHT31;46879;45.658;11.814;2023-04-16T04:25:15;18.26;69.25
61000;SHT31;46879;45.658;11.814;2023-04-16T04:30:16;18.25;69.14
61000;SHT31;46879;45.658;11.814;2023-04-16T04:35:17;18.28;69.19
61000;SHT31;46879;45.658;11.814;2023-04-16T04:40:17;18.25;69.23
61000;SHT31;46879;45.658;11.814;2023-04-16T04:45:18;18.28;69.13
61000;SHT31;46879;45.658;11.814;2023-04-16T04:50:20;18.25;69.12
61000;SHT31;46879;45.658;11.814;2023-04-16T04:55:21;18.28;69.15
61000;SHT31;46879;45.658;11.814;2023-04-16T05:00:21;18.25;69.13
61000;SHT31;46879;45.658;11.814;2023-04-16T05:05:22;18.26;69.10
61000;SHT31;46879;45.658;11.814;2023-04-16T05:10:23;18.25;69.20
61000;SHT31;46879;45.658;11.814;2023-04-16T05:15:23;18.23;69.23
61000;SHT31;46879;45.658;11.814;2023-04-16T05:20:24;18.23;69.26
61000;SHT31;46879;45.658;11.814;2023-04-16T05:25:24;18.22;69.27
61000;SHT31;46879;45.658;11.814;2023-04-16T05:30:25;18.25;69.38
61000;SHT31;46879;45.658;11.814;2023-04-16T05:35:26;18.25;69.20
61000;SHT31;46879;45.658;11.814;2023-04-16T05:40:27;18.26;69.27
61000;SHT31;46879;45.658;11.814;2023-04-16T05:45:27;18.23;69.34
61000;SHT31;46879;45.658;11.814;2023-04-16T05:50:28;18.23;69.29
61000;SHT31;46879;45.658;11.814;2023-04-16T05:55:28;18.23;69.30
61000;SHT31;46879;45.658;11.814;2023-04-16T06:00:32;18.28;69.34
61000;SHT31;46879;45.658;11.814;2023-04-16T06:05:33;18.23;69.29
61000;SHT31;46879;45.658;11.814;2023-04-16T06:10:34;18.21;69.24
61000;SHT31;46879;45.658;11.814;2023-04-16T06:15:34;18.23;69.19
61000;SHT31;46879;45.658;11.814;2023-04-16T06:20:35;18.22;69.14
61000;SHT31;46879;45.658;11.814;2023-04-16T06:25:36;18.26;69.08
61000;SHT31;46879;45.658;11.814;2023-04-16T06:30:36;18.25;69.02
61000;SHT31;46879;45.658;11.814;2023-04-16T06:35:38;18.19;69.02
61000;SHT31;46879;45.658;11.814;2023-04-16T06:40:39;18.22;68.97
61000;SHT31;46879;45.658;11.814;2023-04-16T06:45:39;18.21;68.96
61000;SHT31;46879;45.658;11.814;2023-04-16T06:50:40;18.22;69.06
61000;SHT31;46879;45.658;11.814;2023-04-16T06:55:41;18.22;69.08
61000;SHT31;46879;45.658;11.814;2023-04-16T07:00:41;18.21;69.01
61000;SHT31;46879;45.658;11.814;2023-04-16T07:05:42;18.21;69.02
61000;SHT31;46879;45.658;11.814;2023-04-16T07:10:42;18.21;69.11
61000;SHT31;46879;45.658;11.814;2023-04-16T07:15:43;18.21;69.04
61000;SHT31;46879;45.658;11.814;2023-04-16T07:20:43;18.21;69.12
61000;SHT31;46879;45.658;11.814;2023-04-16T07:25:44;18.21;69.26
61000;SHT31;46879;45.658;11.814;2023-04-16T07:30:45;18.22;69.18
61000;SHT31;46879;45.658;11.814;2023-04-16T07:35:45;18.22;69.17
61000;SHT31;46879;45.658;11.814;2023-04-16T07:40:46;18.22;69.12
61000;SHT31;46879;45.658;11.814;2023-04-16T07:45:47;18.25;69.15
61000;SHT31;46879;45.658;11.814;2023-04-16T07:50:47;18.25;69.34
61000;SHT31;46879;45.658;11.814;2023-04-16T07:55:49;18.22;69.13
61000;SHT31;46879;45.658;11.814;2023-04-16T08:00:50;18.22;69.26
61000;SHT31;46879;45.658;11.814;2023-04-16T08:05:51;18.25;69.22
61000;SHT31;46879;45.658;11.814;2023-04-16T08:10:52;18.23;69.41
61000;SHT31;46879;45.658;11.814;2023-04-16T08:15:55;18.23;69.45
61000;SHT31;46879;45.658;11.814;2023-04-16T08:20:55;18.23;69.42
61000;SHT31;46879;45.658;11.814;2023-04-16T08:25:56;18.28;69.49
61000;SHT31;46879;45.658;11.814;2023-04-16T08:30:57;18.28;69.06
61000;SHT31;46879;45.658;11.814;2023-04-16T08:35:57;18.30;68.74
61000;SHT31;46879;45.658;11.814;2023-04-16T08:41:05;18.30;65.51
61000;SHT31;46879;45.658;11.814;2023-04-16T08:46:08;18.32;66.99
61000;SHT31;46879;45.658;11.814;2023-04-16T08:51:09;18.34;65.87
61000;SHT31;46879;45.658;11.814;2023-04-16T08:56:12;18.34;64.23
61000;SHT31;46879;45.658;11.814;2023-04-16T09:01:14;18.32;61.55
61000;SHT31;46879;45.658;11.814;2023-04-16T09:06:16;18.32;60.71
61000;SHT31;46879;45.658;11.814;2023-04-16T09:11:37;18.33;62.94
61000;SHT31;46879;45.658;11.814;2023-04-16T09:16:39;18.34;62.47
61000;SHT31;46879;45.658;11.814;2023-04-16T09:21:42;18.33;61.05
61000;SHT31;46879;45.658;11.814;2023-04-16T09:26:45;18.32;60.35
61000;SHT31;46879;45.658;11.814;2023-04-16T09:32:06;18.26;60.11
61000;SHT31;46879;45.658;11.814;2023-04-16T09:37:14;18.34;59.32
61000;SHT31;46879;45.658;11.814;2023-04-16T09:42:24;18.37;60.81
61000;SHT31;46879;45.658;11.814;2023-04-16T09:47:42;18.47;60.77
61000;SHT31;46879;45.658;11.814;2023-04-16T09:52:47;18.65;61.09
61000;SHT31;46879;45.658;11.814;2023-04-16T09:57:47;18.68;61.05
61000;SHT31;46879;45.658;11.814;2023-04-16T10:02:48;18.71;61.51
61000;SHT31;46879;45.658;11.814;2023-04-16T10:07:49;18.71;61.99
61000;SHT31;46879;45.658;11.814;2023-04-16T10:12:50;18.71;62.07
61000;SHT31;46879;45.658;11.814;2023-04-16T10:17:52;18.81;61.70
61000;SHT31;46879;45.658;11.814;2023-04-16T10:22:53;18.71;61.80
61000;SHT31;46879;45.658;11.814;2023-04-16T10:27:55;18.68;61.66
61000;SHT31;46879;45.658;11.814;2023-04-16T10:32:56;18.64;61.32
61000;SHT31;46879;45.658;11.814;2023-04-16T10:37:58;18.63;61.49
61000;SHT31;46879;45.658;11.814;2023-04-16T10:43:17;18.57;61.62
61000;SHT31;46879;45.658;11.814;2023-04-16T10:48:19;18.60;61.68
61000;SHT31;46879;45.658;11.814;2023-04-16T10:53:26;18.59;61.69
61000;SHT31;46879;45.658;11.814;2023-04-16T10:58:32;18.57;61.77
61000;SHT31;46879;45.658;11.814;2023-04-16T11:03:34;18.59;61.86
61000;SHT31;46879;45.658;11.814;2023-04-16T11:08:34;18.60;61.87
61000;SHT31;46879;45.658;11.814;2023-04-16T11:13:35;18.60;61.85
61000;SHT31;46879;45.658;11.814;2023-04-16T11:18:38;18.60;61.86
61000;SHT31;46879;45.658;11.814;2023-04-16T11:23:51;18.63;62.18
61000;SHT31;46879;45.658;11.814;2023-04-16T11:28:53;18.61;61.96
61000;SHT31;46879;45.658;11.814;2023-04-16T11:33:55;18.60;61.90
61000;SHT31;46879;45.658;11.814;2023-04-16T11:39:01;18.61;61.83
61000;SHT31;46879;45.658;11.814;2023-04-16T11:44:23;18.64;62.08
61000;SHT31;46879;45.658;11.814;2023-04-16T11:49:28;18.63;62.11
61000;SHT31;46879;45.658;11.814;2023-04-16T11:54:29;18.64;62.10
61000;SHT31;46879;45.658;11.814;2023-04-16T11:59:34;18.61;62.14
61000;SHT31;46879;45.658;11.814;2023-04-16T12:04:36;18.63;62.10
61000;SHT31;46879;45.658;11.814;2023-04-16T12:09:39;18.63;62.03
61000;SHT31;46879;45.658;11.814;2023-04-16T12:14:49;18.63;62.13
61000;SHT31;46879;45.658;11.814;2023-04-16T12:19:54;18.64;62.16
61000;SHT31;46879;45.658;11.814;2023-04-16T12:24:58;18.64;62.12
61000;SHT31;46879;45.658;11.814;2023-04-16T12:30:06;18.60;62.07
61000;SHT31;46879;45.658;11.814;2023-04-16T12:35:09;18.64;62.00
61000;SHT31;46879;45.658;11.814;2023-04-16T12:40:10;18.63;62.10
61000;SHT31;46879;45.658;11.814;2023-04-16T12:45:10;18.63;62.17
61000;SHT31;46879;45.658;11.814;2023-04-16T12:50:11;18.64;62.24
61000;SHT31;46879;45.658;11.814;2023-04-16T12:55:12;18.64;62.19
61000;SHT31;46879;45.658;11.814;2023-04-16T13:00:14;18.63;62.13
61000;SHT31;46879;45.658;11.814;2023-04-16T13:05:15;18.65;62.23
61000;SHT31;46879;45.658;11.814;2023-04-16T13:10:20;18.63;62.13
61000;SHT31;46879;45.658;11.814;2023-04-16T13:15:21;18.63;62.23
61000;SHT31;46879;45.658;11.814;2023-04-16T13:20:21;18.64;62.13
61000;SHT31;46879;45.658;11.814;2023-04-16T13:25:22;18.67;62.11
61000;SHT31;46879;45.658;11.814;2023-04-16T13:30:23;18.64;62.22
61000;SHT31;46879;45.658;11.814;2023-04-16T13:35:25;18.65;62.18
61000;SHT31;46879;45.658;11.814;2023-04-16T13:40:26;18.64;62.30
61000;SHT31;46879;45.658;11.814;2023-04-16T13:45:27;18.67;62.34
61000;SHT31;46879;45.658;11.814;2023-04-16T13:50:27;18.65;62.38
61000;SHT31;46879;45.658;11.814;2023-04-16T13:55:30;18.64;62.47
61000;SHT31;46879;45.658;11.814;2023-04-16T14:00:31;18.67;62.48
61000;SHT31;46879;45.658;11.814;2023-04-16T14:05:31;18.72;62.33
61000;SHT31;46879;45.658;11.814;2023-04-16T14:10:32;18.67;62.48
61000;SHT31;46879;45.658;11.814;2023-04-16T14:15:32;18.64;62.38
61000;SHT31;46879;45.658;11.814;2023-04-16T14:20:33;18.67;62.43
61000;SHT31;46879;45.658;11.814;2023-04-16T14:25:34;18.67;62.17
61000;SHT31;46879;45.658;11.814;2023-04-16T14:30:35;18.67;62.11
61000;SHT31;46879;45.658;11.814;2023-04-16T14:35:35;18.67;62.12
61000;SHT31;46879;45.658;11.814;2023-04-16T14:40:36;18.68;62.24
61000;SHT31;46879;45.658;11.814;2023-04-16T14:45:37;18.67;62.57
61000;SHT31;46879;45.658;11.814;2023-04-16T14:50:39;18.68;62.58
61000;SHT31;46879;45.658;11.814;2023-04-16T14:55:43;18.65;62.74
61000;SHT31;46879;45.658;11.814;2023-04-16T15:00:44;18.68;62.85
61000;SHT31;46879;45.658;11.814;2023-04-16T15:05:44;18.71;62.91
61000;SHT31;46879;45.658;11.814;2023-04-16T15:10:46;18.71;62.95
61000;SHT31;46879;45.658;11.814;2023-04-16T15:15:47;18.74;63.03
61000;SHT31;46879;45.658;11.814;2023-04-16T15:20:48;18.74;63.02
61000;SHT31;46879;45.658;11.814;2023-04-16T15:25:48;18.72;62.99
61000;SHT31;46879;45.658;11.814;2023-04-16T15:30:49;18.74;62.85
61000;SHT31;46879;45.658;11.814;2023-04-16T15:35:51;18.71;62.80
61000;SHT31;46879;45.658;11.814;2023-04-16T15:40:51;18.70;62.83
61000;SHT31;46879;45.658;11.814;2023-04-16T15:45:52;18.70;62.78
61000;SHT31;46879;45.658;11.814;2023-04-16T15:50:53;18.65;63.05
61000;SHT31;46879;45.658;11.814;2023-04-16T15:55:54;18.65;63.12
61000;SHT31;46879;45.658;11.814;2023-04-16T16:00:54;18.64;63.02
61000;SHT31;46879;45.658;11.814;2023-04-16T16:05:55;18.64;62.71
61000;SHT31;46879;45.658;11.814;2023-04-16T16:10:56;18.61;62.59
61000;SHT31;46879;45.658;11.814;2023-04-16T16:15:57;18.63;62.41
61000;SHT31;46879;45.658;11.814;2023-04-16T16:20:58;18.64;62.21
61000;SHT31;46879;45.658;11.814;2023-04-16T16:25:58;18.64;61.89
61000;SHT31;46879;45.658;11.814;2023-04-16T16:30:59;18.64;61.79
61000;SHT31;46879;45.658;11.814;2023-04-16T16:36:01;18.61;61.45
61000;SHT31;46879;45.658;11.814;2023-04-16T16:41:02;18.60;61.46
61000;SHT31;46879;45.658;11.814;2023-04-16T16:46:04;18.64;61.05
61000;SHT31;46879;45.658;11.814;2023-04-16T16:51:08;18.64;60.90
61000;SHT31;46879;45.658;11.814;2023-04-16T16:56:10;18.77;62.33
61000;SHT31;46879;45.658;11.814;2023-04-16T17:01:10;18.77;64.22
61000;SHT31;46879;45.658;11.814;2023-04-16T17:06:11;18.74;64.34
61000;SHT31;46879;45.658;11.814;2023-04-16T17:11:13;18.68;63.96
61000;SHT31;46879;45.658;11.814;2023-04-16T17:16:14;18.67;63.64
61000;SHT31;46879;45.658;11.814;2023-04-16T17:21:16;18.65;63.23
61000;SHT31;46879;45.658;11.814;2023-04-16T17:26:17;18.63;63.53
61000;SHT31;46879;45.658;11.814;2023-04-16T17:31:18;18.67;64.18
61000;SHT31;46879;45.658;11.814;2023-04-16T17:36:19;18.64;65.24
61000;SHT31;46879;45.658;11.814;2023-04-16T17:41:22;18.65;65.66
61000;SHT31;46879;45.658;11.814;2023-04-16T17:46:22;18.64;65.71
61000;SHT31;46879;45.658;11.814;2023-04-16T17:51:23;18.61;66.02
61000;SHT31;46879;45.658;11.814;2023-04-16T17:56:23;18.63;66.41
61000;SHT31;46879;45.658;11.814;2023-04-16T18:01:24;18.63;66.41
61000;SHT31;46879;45.658;11.814;2023-04-16T18:06:24;18.64;66.53
61000;SHT31;46879;45.658;11.814;2023-04-16T18:11:26;18.60;66.22
61000;SHT31;46879;45.658;11.814;2023-04-16T18:16:27;18.60;65.84
61000;SHT31;46879;45.658;11.814;2023-04-16T18:21:28;18.61;65.69
61000;SHT31;46879;45.658;11.814;2023-04-16T18:26:29;18.56;65.56
61000;SHT31;46879;45.658;11.814;2023-04-16T18:31:30;18.59;65.42
61000;SHT31;46879;45.658;11.814;2023-04-16T18:36:30;18.57;65.28
61000;SHT31;46879;45.658;11.814;2023-04-16T18:41:32;18.54;65.19
61000;SHT31;46879;45.658;11.814;2023-04-16T18:46:32;18.54;65.14
61000;SHT31;46879;45.658;11.814;2023-04-16T18:51:33;18.56;65.08
61000;SHT31;46879;45.658;11.814;2023-04-16T18:56:33;18.53;64.98
61000;SHT31;46879;45.658;11.814;2023-04-16T19:01:34;18.53;64.94
61000;SHT31;46879;45.658;11.814;2023-04-16T19:06:34;18.51;64.86
61000;SHT31;46879;45.658;11.814;2023-04-16T19:11:35;18.50;64.85
61000;SHT31;46879;45.658;11.814;2023-04-16T19:16:37;18.51;64.77
61000;SHT31;46879;45.658;11.814;2023-04-16T19:21:38;18.50;64.75
61000;SHT31;46879;45.658;11.814;2023-04-16T19:26:38;18.51;64.70
61000;SHT31;46879;45.658;11.814;2023-04-16T19:31:39;18.51;64.70
61000;SHT31;46879;45.658;11.814;2023-04-16T19:36:40;18.49;64.63
61000;SHT31;46879;45.658;11.814;2023-04-16T19:41:40;18.49;64.61
61000;SHT31;46879;45.658;11.814;2023-04-16T19:46:41;18.47;64.61
61000;SHT31;46879;45.658;11.814;2023-04-16T19:51:42;18.49;64.63
61000;SHT31;46879;45.658;11.814;2023-04-16T19:56:42;18.49;64.60
61000;SHT31;46879;45.658;11.814;2023-04-16T20:01:43;18.47;64.56
61000;SHT31;46879;45.658;11.814;2023-04-16T20:06:43;18.46;64.54
61000;SHT31;46879;45.658;11.814;2023-04-16T20:11:46;18.46;64.54
61000;SHT31;46879;45.658;11.814;2023-04-16T20:16:47;18.43;64.52
61000;SHT31;46879;45.658;11.814;2023-04-16T20:21:47;18.44;64.50
61000;SHT31;46879;45.658;11.814;2023-04-16T20:26:48;18.43;64.48
61000;SHT31;46879;45.658;11.814;2023-04-16T20:31:49;18.43;64.47
61000;SHT31;46879;45.658;11.814;2023-04-16T20:36:49;18.44;64.46
61000;SHT31;46879;45.658;11.814;2023-04-16T20:41:50;18.44;64.42
61000;SHT31;46879;45.658;11.814;2023-04-16T20:46:55;18.43;64.44
61000;SHT31;46879;45.658;11.814;2023-04-16T20:51:57;18.44;64.42
61000;SHT31;46879;45.658;11.814;2023-04-16T20:56:58;18.40;64.39
61000;SHT31;46879;45.658;11.814;2023-04-16T21:01:58;18.39;64.33
61000;SHT31;46879;45.658;11.814;2023-04-16T21:06:59;18.42;64.28
61000;SHT31;46879;45.658;11.814;2023-04-16T21:12:03;18.40;64.31
61000;SHT31;46879;45.658;11.814;2023-04-16T21:17:04;18.40;64.28
61000;SHT31;46879;45.658;11.814;2023-04-16T21:22:04;18.40;64.26
61000;SHT31;46879;45.658;11.814;2023-04-16T21:27:05;18.40;64.26
61000;SHT31;46879;45.658;11.814;2023-04-16T21:32:06;18.37;64.29
61000;SHT31;46879;45.658;11.814;2023-04-16T21:37:06;18.40;64.27
61000;SHT31;46879;45.658;11.814;2023-04-16T21:42:07;18.40;64.28
61000;SHT31;46879;45.658;11.814;2023-04-16T21:47:08;18.43;64.26
61000;SHT31;46879;45.658;11.814;2023-04-16T21:52:09;18.37;64.24
61000;SHT31;46879;45.658;11.814;2023-04-16T21:57:13;18.36;64.22
61000;SHT31;46879;45.658;11.814;2023-04-16T22:02:16;18.34;64.35
61000;SHT31;46879;45.658;11.814;2023-04-16T22:07:16;18.36;64.59
61000;SHT31;46879;45.658;11.814;2023-04-16T22:12:19;18.34;64.76
61000;SHT31;46879;45.658;11.814;2023-04-16T22:17:20;18.39;64.89
61000;SHT31;46879;45.658;11.814;2023-04-16T22:22:21;18.39;65.03
61000;SHT31;46879;45.658;11.814;2023-04-16T22:27:21;18.36;65.15
61000;SHT31;46879;45.658;11.814;2023-04-16T22:32:22;18.37;65.39
61000;SHT31;46879;45.658;11.814;2023-04-16T22:37:22;18.36;65.49
61000;SHT31;46879;45.658;11.814;2023-04-16T22:42:23;18.39;65.53
61000;SHT31;46879;45.658;11.814;2023-04-16T22:47:23;18.39;65.66
61000;SHT31;46879;45.658;11.814;2023-04-16T22:52:24;18.36;65.71
61000;SHT31;46879;45.658;11.814;2023-04-16T22:57:25;18.36;65.80
61000;SHT31;46879;45.658;11.814;2023-04-16T23:02:25;18.34;65.80
61000;SHT31;46879;45.658;11.814;2023-04-16T23:07:26;18.36;66.00
61000;SHT31;46879;45.658;11.814;2023-04-16T23:12:27;18.36;65.98
61000;SHT31;46879;45.658;11.814;2023-04-16T23:17:27;18.36;66.03
61000;SHT31;46879;45.658;11.814;2023-04-16T23:22:28;18.36;66.11
61000;SHT31;46879;45.658;11.814;2023-04-16T23:27:28;18.36;66.14
61000;SHT31;46879;45.658;11.814;2023-04-16T23:32:30;18.36;66.23
61000;SHT31;46879;45.658;11.814;2023-04-16T23:37:30;18.36;66.30
61000;SHT31;46879;45.658;11.814;2023-04-16T23:42:31;18.36;66.33
61000;SHT31;46879;45.658;11.814;2023-04-16T23:47:31;18.39;66.50
61000;SHT31;46879;45.658;11.814;2023-04-16T23:52:32;18.36;66.41
61000;SHT31;46879;45.658;11.814;2023-04-16T23:57:33;18.34;66.54
